createdAt,value
2018-09-12T01:14:40.477Z,3.20
2018-09-12T01:15:15.912Z,3.35
2018-09-12T01:15:52.308Z,2.83
2018-09-12T01:16:26.627Z,3.22
2018-09-12T01:45:58.525Z,3.25
2018-09-12T01:46:37.458Z,3.20
2018-09-12T01:47:13.824Z,3.75
2018-09-12T01:47:50.348Z,3.03
2018-09-12T01:49:04.907Z,3.25
2018-09-12T01:49:42.144Z,3.42
2018-09-12T01:50:18.261Z,3.35
2018-09-12T01:50:53.208Z,3.37
2018-09-12T01:51:29.680Z,3.53
2018-09-12T01:52:04.820Z,4.22
2018-09-12T01:53:29.676Z,3.12
2018-09-12T01:54:10.345Z,3.17
2018-09-12T01:54:46.834Z,2.97
2018-09-12T01:55:23.807Z,3.40
2018-09-12T01:56:07.328Z,3.17
2018-09-12T01:56:55.865Z,2.70
2018-09-12T01:57:33.155Z,3.17
2018-09-12T01:58:13.436Z,2.83
2018-09-12T01:58:50.278Z,3.03
2018-09-12T01:59:25.558Z,3.35
2018-09-12T02:00:02.654Z,3.35
2018-09-12T02:00:41.285Z,3.17
2018-09-12T02:01:21.011Z,3.45
2018-09-12T02:01:58.334Z,3.75
2018-09-12T02:08:16.068Z,3.25
2018-09-12T02:08:55.184Z,2.83
2018-09-12T02:09:30.173Z,3.65
2018-09-12T02:10:07.379Z,3.10
2018-09-12T02:30:51.828Z,3.20
2018-09-12T03:15:44.595Z,2.78
2018-09-12T03:16:18.715Z,2.53
2018-09-12T03:16:51.963Z,3.00
2018-09-12T03:17:28.151Z,3.80
2018-09-12T03:18:02.879Z,3.20
2018-09-12T03:18:37.155Z,3.55
2018-09-12T03:19:11.856Z,3.40
2018-09-12T03:19:45.301Z,3.40
2018-09-12T03:20:19.732Z,3.10
2018-09-12T03:20:55.717Z,2.92
2018-09-12T03:21:30.356Z,3.65
2018-09-12T03:22:05.333Z,3.42
2018-09-12T03:22:38.772Z,3.50
2018-09-12T03:28:48.030Z,2.87
2018-09-12T03:35:07.662Z,3.15
2018-09-12T03:43:37.594Z,3.03
2018-09-12T04:24:17.784Z,3.25
2018-09-12T04:25:01.069Z,3.00
2018-09-12T10:49:59.065Z,3.40
2018-09-12T10:50:32.105Z,2.90
2018-09-12T10:51:05.164Z,3.12
2018-09-12T10:51:38.980Z,3.40
2018-09-12T10:52:12.906Z,2.90
2018-09-12T10:52:45.962Z,3.03
2018-09-12T10:53:19.008Z,3.00
2018-09-12T10:54:57.154Z,2.90
2018-09-12T10:56:35.243Z,3.45
2018-09-12T10:57:08.288Z,2.70
2018-09-12T10:57:41.358Z,3.28
2018-09-12T10:58:47.035Z,2.90
2018-09-12T11:10:14.063Z,3.20
2018-09-12T11:10:47.119Z,2.90
2018-09-12T11:11:20.163Z,2.60
2018-09-12T11:11:54.012Z,2.60
2018-09-12T11:12:27.273Z,2.60
2018-09-12T11:13:00.488Z,2.60
2018-09-12T11:13:33.543Z,3.20
2018-09-12T11:14:06.605Z,3.20
2018-09-12T11:14:39.665Z,2.90
2018-09-12T11:15:12.739Z,3.23
2018-09-12T11:15:45.933Z,3.50
2018-09-12T11:16:19.211Z,3.50
2018-09-12T11:17:58.076Z,2.67
2018-09-12T11:18:31.202Z,2.53
2018-09-12T11:19:04.267Z,2.67
2018-09-12T11:19:37.325Z,3.17
2018-09-12T11:20:10.365Z,3.10
2018-09-12T11:20:43.404Z,2.13
2018-09-12T11:21:16.684Z,2.73
2018-09-12T11:21:50.518Z,2.73
2018-09-12T11:22:23.573Z,2.43
2018-09-12T11:22:56.632Z,3.40
2018-09-12T11:23:29.687Z,2.53
2018-09-12T11:24:03.016Z,2.50
2018-09-12T11:24:36.640Z,2.90
2018-09-12T11:25:09.705Z,2.75
2018-09-12T11:47:19.176Z,2.60
2018-09-12T11:47:52.989Z,3.00
2018-09-12T11:48:26.049Z,3.80
2018-09-12T11:48:59.128Z,2.97
2018-09-12T11:49:32.180Z,2.93
2018-09-12T11:50:06.004Z,2.70
2018-09-12T11:50:39.065Z,2.90
2018-09-12T14:19:54.952Z,1.80
2018-09-12T14:21:33.078Z,1.50
2018-09-12T14:22:38.699Z,1.40
2018-09-12T14:25:21.819Z,1.90
2018-09-12T14:25:54.886Z,1.60
2018-09-12T14:29:12.436Z,1.75
2018-09-12T14:29:45.501Z,1.70
2018-09-12T14:30:18.576Z,1.50
2018-09-12T14:30:51.624Z,1.50
2018-09-12T14:31:25.456Z,1.60
2018-09-12T14:31:58.497Z,1.65
2018-09-12T14:32:32.325Z,1.60
2018-09-12T14:33:05.370Z,1.40
2018-09-12T14:33:38.452Z,1.60
2018-09-12T14:34:11.510Z,1.80
2018-09-12T14:34:45.348Z,1.73
2018-09-12T14:35:18.397Z,1.33
2018-09-12T14:35:51.637Z,2.10
2018-09-12T14:36:24.702Z,1.67
2018-09-12T14:36:57.756Z,1.58
2018-09-12T14:37:30.797Z,1.50
2018-09-12T14:38:04.648Z,1.50
2018-09-12T14:38:37.710Z,1.65
2018-09-12T14:39:10.891Z,1.90
2018-09-12T14:39:43.814Z,2.05
2018-09-12T14:40:16.903Z,2.20
2018-09-12T14:41:56.241Z,1.50
2018-09-12T14:42:29.587Z,1.95
2018-09-12T14:43:03.432Z,1.40
2018-09-12T14:43:36.480Z,1.87
2018-09-12T14:44:10.276Z,1.60
2018-09-12T14:44:43.329Z,1.60
2018-09-12T14:45:19.393Z,1.80
2018-09-12T14:45:52.451Z,1.80
2018-09-12T14:46:26.260Z,1.62
2018-09-12T14:46:59.353Z,1.70
2018-09-12T14:47:32.618Z,1.95
2018-09-12T14:48:05.676Z,1.77
2018-09-12T14:48:40.105Z,2.03
2018-09-12T14:49:13.169Z,1.83
2018-09-12T14:49:46.225Z,1.90
2018-09-12T14:50:21.503Z,1.70
2018-09-12T14:50:54.555Z,1.75
2018-09-12T14:51:27.599Z,1.80
2018-09-12T14:52:01.456Z,1.70
2018-09-12T14:52:34.510Z,1.55
2018-09-12T14:53:07.566Z,1.73
2018-09-12T14:53:40.629Z,1.90
2018-09-12T14:54:13.713Z,1.83
2018-09-12T14:54:46.758Z,1.52
2018-09-12T14:55:19.817Z,1.77
2018-09-12T14:55:52.872Z,1.77
2018-09-12T14:56:25.959Z,2.00
2018-09-12T14:57:00.786Z,1.75
2018-09-12T14:57:33.905Z,1.52
2018-09-12T14:58:06.917Z,1.40
2018-09-12T14:58:40.009Z,1.87
2018-09-12T14:59:13.069Z,1.50
2018-09-12T14:59:46.161Z,1.70
2018-09-12T15:00:19.215Z,2.10
2018-09-12T15:00:52.281Z,1.90
2018-09-12T15:01:25.325Z,1.60
2018-09-12T15:01:58.388Z,1.67
2018-09-12T15:02:32.236Z,1.67
2018-09-12T15:03:05.333Z,1.85
2018-09-12T15:03:38.388Z,1.80
2018-09-12T15:04:11.466Z,1.83
2018-09-12T15:04:44.561Z,1.92
2018-09-12T15:05:17.559Z,2.00
2018-09-12T15:05:51.404Z,1.90
2018-09-12T15:06:24.465Z,1.75
2018-09-12T15:06:57.505Z,2.17
2018-09-12T15:07:31.347Z,1.67
2018-09-12T15:08:04.405Z,1.90
2018-09-12T15:08:37.483Z,1.90
2018-09-12T15:09:10.517Z,1.70
2018-09-12T15:09:44.367Z,2.10
2018-09-12T15:10:17.472Z,1.52
2018-09-12T15:10:50.767Z,1.70
2018-09-12T15:11:23.780Z,2.08
2018-09-12T15:11:56.846Z,1.90
2018-09-12T15:12:29.908Z,1.67
2018-09-12T15:13:03.723Z,1.70
2018-09-12T15:13:36.768Z,1.90
2018-09-12T15:14:10.611Z,2.12
2018-09-12T15:14:43.665Z,1.90
2018-09-12T15:15:16.751Z,2.08
2018-09-12T15:15:49.811Z,1.90
2018-09-12T15:16:22.857Z,2.08
2018-09-12T15:16:56.688Z,1.90
2018-09-12T15:17:30.532Z,1.73
2018-09-12T15:18:03.588Z,2.05
2018-09-12T15:18:36.675Z,2.28
2018-09-12T15:19:09.708Z,1.95
2018-09-12T15:19:42.776Z,1.83
2018-09-12T15:20:15.836Z,1.73
2018-09-12T15:20:48.909Z,1.92
2018-09-12T15:21:22.735Z,2.00
2018-09-12T15:21:55.819Z,1.77
2018-09-12T15:22:28.885Z,1.80
2018-09-12T15:23:01.941Z,2.05
2018-09-12T15:23:35.016Z,2.08
2018-09-12T15:24:08.108Z,1.95
2018-09-12T15:24:41.140Z,1.77
2018-09-12T15:25:14.994Z,1.80
2018-09-12T15:25:48.056Z,1.92
2018-09-12T15:26:21.940Z,1.60
2018-09-12T15:26:55.006Z,1.90
2018-09-12T15:27:28.850Z,2.00
2018-09-12T15:28:02.269Z,1.75
2018-09-12T15:28:35.956Z,1.90
2018-09-12T15:29:09.777Z,2.00
2018-09-12T15:29:42.832Z,1.95
2018-09-12T15:30:15.884Z,1.90
2018-09-12T15:30:48.949Z,1.90
2018-09-12T15:31:21.998Z,2.17
2018-09-12T15:31:55.043Z,1.70
2018-09-12T15:32:28.159Z,2.00
2018-09-12T15:33:01.177Z,1.80
2018-09-12T15:33:34.221Z,2.03
2018-09-12T15:34:08.069Z,1.75
2018-09-12T15:34:41.112Z,2.10
2018-09-12T15:35:14.952Z,1.83
2018-09-12T15:35:48.016Z,1.90
2018-09-12T15:36:21.088Z,1.87
2018-09-12T15:36:54.154Z,2.10
2018-09-12T15:37:27.224Z,1.70
2018-09-12T15:38:00.270Z,1.90
2018-09-12T15:38:34.077Z,1.90
2018-09-12T15:39:07.156Z,2.30
2018-09-12T15:39:40.980Z,2.35
2018-09-12T15:40:14.024Z,2.15
2018-09-12T15:40:47.089Z,1.62
2018-09-12T15:41:20.942Z,1.87
2018-09-12T15:41:54.012Z,1.80
2018-09-12T15:42:27.077Z,1.70
2018-09-12T15:43:00.133Z,2.00
2018-09-12T15:43:33.217Z,1.80
2018-09-12T15:44:06.309Z,2.10
2018-09-12T15:44:39.344Z,2.03
2018-09-12T15:45:12.409Z,2.10
2018-09-12T15:45:47.040Z,1.70
2018-09-12T15:46:20.107Z,2.15
2018-09-12T15:46:53.165Z,1.98
2018-09-12T15:47:26.242Z,1.77
2018-09-12T15:47:59.326Z,2.00
2018-09-12T15:48:33.158Z,2.00
2018-09-12T15:49:06.215Z,2.03
2018-09-12T15:49:39.257Z,2.05
2018-09-12T15:50:13.233Z,1.83
2018-09-12T15:50:47.804Z,1.90
2018-09-12T15:51:20.853Z,2.20
2018-09-12T15:51:54.674Z,2.03
2018-09-12T15:52:27.725Z,1.90
2018-09-12T15:53:00.763Z,2.22
2018-09-12T15:53:33.808Z,2.10
2018-09-12T15:54:06.876Z,1.90
2018-09-12T15:54:39.941Z,1.90
2018-09-12T15:55:12.994Z,1.50
2018-09-12T15:55:46.816Z,1.87
2018-09-12T15:56:19.871Z,2.05
2018-09-12T15:56:52.916Z,1.90
2018-09-12T15:57:25.988Z,1.90
2018-09-12T15:57:59.129Z,2.05
2018-09-12T15:58:32.112Z,1.80
2018-09-12T15:59:05.161Z,2.40
2018-09-12T15:59:38.216Z,2.10
2018-09-12T16:00:11.293Z,1.92
2018-09-12T16:00:45.110Z,1.87
2018-09-12T16:01:18.172Z,2.08
2018-09-12T16:01:51.223Z,2.15
2018-09-12T16:02:25.057Z,2.00
2018-09-12T16:02:58.089Z,2.20
2018-09-12T16:03:31.899Z,2.30
2018-09-12T16:04:04.964Z,2.17
2018-09-12T16:04:38.991Z,1.95
2018-09-12T16:05:12.041Z,2.03
2018-09-12T16:05:45.085Z,1.80
2018-09-12T16:06:18.169Z,2.10
2018-09-12T16:06:51.206Z,1.80
2018-09-12T16:07:24.268Z,1.80
2018-09-12T16:07:59.516Z,1.98
2018-09-12T16:08:32.522Z,1.75
2018-09-12T16:09:05.875Z,2.28
2018-09-12T16:09:39.123Z,2.03
2018-09-12T16:10:12.191Z,13.65
2018-09-12T16:10:45.252Z,35.10
2018-09-12T16:11:18.312Z,8.65
2018-09-12T16:11:51.369Z,3.75
2018-09-12T16:12:24.460Z,2.70
2018-09-12T16:12:57.500Z,2.15
2018-09-12T16:13:30.537Z,2.37
2018-09-12T16:14:03.596Z,1.90
2018-09-12T16:14:37.408Z,1.80
2018-09-12T16:15:10.719Z,1.73
2018-09-12T16:15:43.756Z,2.20
2018-09-12T16:16:17.561Z,1.70
2018-09-12T16:16:50.652Z,1.80
2018-09-12T16:17:23.662Z,2.20
2018-09-12T16:17:56.708Z,2.00
2018-09-12T16:18:29.752Z,2.12
2018-09-12T16:19:02.801Z,2.17
2018-09-12T16:19:35.849Z,2.33
2018-09-12T16:20:08.891Z,2.00
2018-09-12T16:20:41.927Z,1.80
2018-09-12T16:21:15.747Z,2.10
2018-09-12T16:21:48.823Z,2.12
2018-09-12T16:22:21.869Z,2.30
2018-09-12T16:22:54.949Z,1.75
2018-09-12T16:23:27.972Z,1.90
2018-09-12T16:24:01.013Z,2.12
2018-09-12T16:24:34.064Z,1.98
2018-09-12T16:25:07.108Z,2.00
2018-09-12T16:25:40.178Z,2.12
2018-09-12T16:26:13.459Z,2.65
2018-09-12T16:26:46.724Z,2.28
2018-09-12T16:27:19.777Z,2.15
2018-09-12T16:27:53.581Z,2.30
2018-09-12T16:28:26.613Z,2.00
2018-09-12T16:28:59.653Z,2.00
2018-09-12T16:29:32.697Z,2.10
2018-09-12T16:30:06.517Z,1.85
2018-09-12T16:30:39.556Z,1.70
2018-09-12T16:31:13.381Z,1.90
2018-09-12T16:31:46.448Z,1.92
2018-09-12T16:32:19.529Z,1.83
2018-09-12T16:32:52.604Z,2.05
2018-09-12T16:33:26.298Z,2.15
2018-09-12T16:33:59.341Z,2.25
2018-09-12T16:34:32.384Z,2.10
2018-09-12T16:35:05.425Z,1.95
2018-09-12T16:35:38.460Z,2.03
2018-09-12T16:36:12.263Z,2.20
2018-09-12T16:36:45.307Z,2.03
2018-09-12T16:37:18.367Z,1.67
2018-09-12T16:37:51.528Z,2.00
2018-09-12T16:38:24.583Z,2.30
2018-09-12T16:38:57.651Z,1.95
2018-09-12T16:39:30.723Z,1.42
2018-09-12T16:40:03.823Z,1.73
2018-09-12T16:40:36.815Z,2.17
2018-09-12T16:41:09.860Z,2.20
2018-09-12T16:41:42.922Z,2.28
2018-09-12T16:42:16.746Z,2.00
2018-09-12T16:42:49.798Z,1.77
2018-09-12T16:43:22.816Z,2.00
2018-09-12T16:43:55.855Z,2.20
2018-09-12T16:44:28.927Z,1.87
2018-09-12T16:45:01.949Z,2.30
2018-09-12T16:45:35.019Z,1.95
2018-09-12T16:46:08.050Z,2.30
2018-09-12T16:46:41.079Z,2.05
2018-09-12T16:47:14.165Z,2.28
2018-09-12T16:47:47.225Z,1.92
2018-09-12T16:48:20.264Z,2.08
2018-09-12T16:48:54.071Z,1.80
2018-09-12T16:49:27.355Z,1.62
2018-09-12T16:50:00.423Z,2.03
2018-09-12T16:50:33.476Z,1.95
2018-09-12T16:51:06.542Z,2.08
2018-09-12T16:51:39.635Z,2.00
2018-09-12T16:52:12.644Z,2.37
2018-09-12T16:52:45.694Z,2.00
2018-09-12T16:53:19.489Z,2.10
2018-09-12T16:53:52.525Z,1.98
2018-09-12T16:54:25.571Z,2.12
2018-09-12T16:54:58.610Z,1.92
2018-09-12T16:55:31.641Z,1.80
2018-09-12T16:56:04.707Z,2.15
2018-09-12T16:56:37.771Z,2.10
2018-09-12T16:57:10.758Z,2.03
2018-09-12T16:57:43.800Z,2.00
2018-09-12T16:58:16.847Z,2.30
2018-09-12T16:58:49.906Z,2.00
2018-09-12T16:59:22.965Z,2.12
2018-09-12T16:59:56.758Z,1.85
2018-09-12T17:00:30.570Z,2.05
2018-09-12T17:01:03.622Z,2.10
2018-09-12T17:01:36.656Z,2.12
2018-09-12T17:02:09.735Z,2.10
2018-09-12T17:02:42.811Z,2.20
2018-09-12T17:03:15.803Z,2.20
2018-09-12T17:03:48.849Z,1.87
2018-09-12T17:04:21.895Z,2.28
2018-09-12T17:04:55.003Z,2.40
2018-09-12T17:05:28.057Z,2.37
2018-09-12T17:06:01.096Z,2.10
2018-09-12T17:06:34.896Z,2.42
2018-09-12T17:07:07.956Z,2.28
2018-09-12T17:07:41.017Z,1.98
2018-09-12T17:08:14.068Z,1.85
2018-09-12T17:08:47.892Z,1.83
2018-09-12T17:09:20.950Z,1.90
2018-09-12T17:09:53.973Z,2.10
2018-09-12T17:10:27.011Z,2.03
2018-09-12T17:11:00.064Z,2.10
2018-09-12T17:11:33.113Z,2.50
2018-09-12T17:12:06.303Z,1.90
2018-09-12T17:12:39.380Z,2.00
2018-09-12T17:13:12.439Z,2.55
2018-09-12T17:13:45.489Z,2.20
2018-09-12T17:14:18.685Z,2.20
2018-09-12T17:14:51.656Z,2.42
2018-09-12T17:15:24.717Z,1.90
2018-09-12T17:15:58.525Z,2.10
2018-09-12T17:16:31.610Z,1.95
2018-09-12T17:17:04.636Z,2.15
2018-09-12T17:17:37.701Z,2.05
2018-09-12T17:18:10.758Z,1.92
2018-09-12T17:18:43.815Z,1.98
2018-09-12T17:19:16.861Z,2.20
2018-09-12T17:19:49.923Z,2.10
2018-09-12T17:20:22.981Z,2.17
2018-09-12T17:20:56.016Z,2.08
2018-09-12T17:21:29.830Z,2.08
2018-09-12T17:22:02.866Z,2.50
2018-09-12T17:22:35.931Z,1.85
2018-09-12T17:23:08.979Z,1.90
2018-09-12T17:23:42.085Z,2.20
2018-09-12T17:24:15.111Z,2.50
2018-09-12T17:24:48.156Z,1.95
2018-09-12T17:25:21.196Z,2.10
2018-09-12T17:25:55.015Z,2.35
2018-09-12T17:26:28.836Z,2.35
2018-09-12T17:27:01.889Z,2.10
2018-09-12T17:27:35.102Z,1.70
2018-09-12T17:28:08.139Z,2.20
2018-09-12T17:28:41.186Z,2.60
2018-09-12T17:29:14.996Z,2.12
2018-09-12T17:29:48.028Z,2.10
2018-09-12T17:30:21.065Z,2.40
2018-09-12T17:30:54.109Z,2.30
2018-09-12T17:31:27.904Z,1.90
2018-09-12T17:32:00.936Z,2.42
2018-09-12T17:32:33.997Z,2.33
2018-09-12T17:33:07.039Z,1.90
2018-09-12T17:33:40.077Z,2.25
2018-09-12T17:34:13.135Z,2.10
2018-09-12T17:34:46.156Z,2.22
2018-09-12T17:35:19.187Z,1.95
2018-09-12T17:35:52.221Z,2.08
2018-09-12T17:36:25.310Z,2.37
2018-09-12T17:36:58.355Z,2.33
2018-09-12T17:37:31.415Z,2.45
2018-09-12T17:38:04.521Z,2.42
2018-09-12T17:38:42.924Z,1.90
2018-09-12T17:39:15.984Z,2.35
2018-09-12T17:39:49.011Z,2.45
2018-09-12T17:40:22.072Z,2.35
2018-09-12T17:40:55.115Z,2.30
2018-09-12T17:41:28.153Z,2.20
2018-09-12T17:42:01.197Z,2.28
2018-09-12T17:42:34.225Z,2.75
2018-09-12T17:43:07.371Z,2.20
2018-09-12T17:43:40.400Z,2.20
2018-09-12T17:44:13.430Z,2.15
2018-09-12T17:44:47.405Z,2.60
2018-09-12T17:45:20.429Z,2.20
2018-09-12T17:45:53.463Z,2.40
2018-09-12T17:46:26.528Z,2.20
2018-09-12T17:46:59.563Z,2.60
2018-09-12T17:47:32.628Z,2.15
2018-09-12T17:48:05.673Z,2.08
2018-09-12T17:48:38.729Z,2.50
2018-09-12T17:49:11.793Z,2.03
2018-09-12T17:49:44.833Z,2.20
2018-09-12T17:51:22.912Z,2.50
2018-09-12T17:51:56.724Z,2.78
2018-09-12T17:53:13.140Z,2.10
2018-09-12T17:53:46.200Z,2.10
2018-09-12T17:54:20.039Z,2.20
2018-09-12T17:54:53.083Z,2.53
2018-09-12T17:55:26.116Z,2.58
2018-09-12T17:55:59.939Z,2.67
2018-09-12T17:59:17.349Z,2.40
2018-09-12T18:03:20.339Z,2.20
2018-09-12T18:03:54.129Z,2.72
2018-09-12T18:04:27.924Z,2.47
2018-09-12T18:05:01.746Z,2.53
2018-09-12T18:05:34.777Z,2.17
2018-09-12T18:06:07.806Z,2.25
2018-09-12T18:06:40.848Z,2.30
2018-09-12T18:07:14.640Z,2.62
2018-09-12T18:07:47.694Z,2.15
2018-09-12T18:13:46.917Z,2.40
2018-09-12T18:14:20.034Z,2.45
2018-09-12T18:14:53.069Z,2.33
2018-09-12T18:15:26.096Z,2.25
2018-09-12T18:15:59.152Z,1.95
2018-09-12T18:16:32.196Z,2.20
2018-09-12T18:17:05.220Z,2.90
2018-09-12T18:17:38.322Z,2.55
2018-09-12T18:18:11.321Z,2.30
2018-09-12T18:18:44.376Z,2.28
2018-09-12T18:19:17.407Z,2.40
2018-09-12T18:19:50.453Z,2.17
2018-09-12T18:20:24.273Z,2.33
2018-09-12T18:20:57.312Z,2.33
2018-09-12T18:21:31.117Z,2.47
2018-09-12T18:22:04.926Z,2.33
2018-09-12T18:22:37.972Z,1.80
2018-09-12T18:23:11.776Z,2.50
2018-09-12T18:23:44.853Z,2.50
2018-09-12T18:24:17.904Z,2.42
2018-09-12T18:24:51.041Z,2.40
2018-09-12T18:25:23.996Z,2.70
2018-09-12T18:25:57.044Z,2.70
2018-09-12T18:26:30.871Z,2.60
2018-09-12T18:27:03.912Z,2.65
2018-09-12T18:27:37.708Z,2.30
2018-09-12T18:28:11.515Z,2.35
2018-09-12T18:28:44.567Z,2.30
2018-09-12T18:29:17.738Z,2.20
2018-09-12T18:29:50.766Z,2.20
2018-09-12T19:06:55.690Z,2.80
2018-09-12T19:09:06.289Z,2.80
2018-09-12T19:10:11.848Z,3.00
2018-09-12T19:10:44.877Z,3.60
2018-09-12T19:11:17.941Z,2.90
2018-09-12T19:11:51.003Z,3.50
2018-09-12T19:13:29.073Z,3.50
2018-09-12T19:16:12.171Z,2.90
2018-09-12T19:16:45.230Z,3.40
2018-09-12T19:17:18.284Z,3.20
2018-09-12T19:18:24.677Z,3.10
2018-09-12T19:18:57.684Z,2.90
2018-09-12T19:20:36.539Z,3.08
2018-09-12T19:21:10.411Z,2.80
2018-09-12T19:21:43.383Z,3.00
2018-09-12T19:22:16.447Z,3.33
2018-09-12T19:22:49.485Z,3.42
2018-09-12T19:23:22.516Z,3.10
2018-09-12T19:23:55.563Z,3.10
2018-09-12T19:24:28.642Z,3.10
2018-09-12T19:25:02.893Z,3.65
2018-09-12T19:25:35.929Z,3.50
2018-09-12T19:26:08.993Z,3.00
2018-09-12T19:26:42.065Z,3.30
2018-09-12T19:27:15.109Z,3.20
2018-09-12T19:27:48.144Z,3.72
2018-09-12T19:28:21.184Z,3.47
2018-09-12T19:28:54.218Z,3.00
2018-09-12T19:29:28.036Z,3.30
2018-09-12T19:30:01.081Z,3.08
2018-09-12T19:30:34.120Z,3.05
2018-09-12T19:31:07.167Z,3.37
2018-09-12T19:31:40.223Z,3.20
2018-09-12T19:32:13.277Z,3.67
2018-09-12T19:32:47.070Z,3.50
2018-09-12T19:33:20.868Z,3.70
2018-09-12T19:33:54.006Z,3.60
2018-09-12T19:34:27.724Z,3.42
2018-09-12T19:35:01.540Z,3.45
2018-09-12T19:35:34.612Z,3.12
2018-09-12T19:36:08.491Z,3.55
2018-09-12T20:15:52.391Z,5.20
2018-09-12T20:16:26.217Z,5.47
2018-09-12T20:16:59.288Z,4.93
2018-09-12T20:18:05.633Z,5.22
2018-09-12T20:18:38.664Z,5.70
2018-09-12T20:19:11.727Z,5.18
2018-09-12T20:19:44.779Z,5.62
2018-09-12T20:20:17.802Z,5.40
2018-09-12T20:20:51.614Z,5.45
2018-09-12T20:21:24.664Z,5.37
2018-09-12T20:21:58.499Z,5.40
2018-09-12T20:22:31.528Z,5.68
2018-09-12T20:23:04.575Z,5.57
2018-09-12T20:23:37.690Z,5.25
2018-09-12T20:24:10.665Z,5.80
2018-09-12T20:24:43.710Z,5.37
2018-09-12T20:25:16.768Z,5.20
2018-09-12T20:25:49.821Z,5.00
2018-09-12T20:26:22.852Z,5.90
2018-09-12T20:26:56.680Z,5.47
2018-09-12T20:27:29.707Z,5.65
2018-09-12T20:28:02.735Z,6.37
2018-09-12T20:28:35.788Z,5.05
2018-09-12T20:29:09.616Z,5.70
2018-09-12T20:29:42.652Z,5.62
2018-09-12T20:30:15.694Z,5.95
2018-09-12T20:30:48.746Z,5.37
2018-09-12T20:31:21.771Z,5.90
2018-09-12T20:31:54.824Z,6.10
2018-09-12T20:32:27.875Z,5.53
2018-09-12T20:33:00.936Z,5.82
2018-09-12T20:33:34.007Z,5.37
2018-09-12T20:34:07.810Z,6.18
2018-09-12T20:34:40.884Z,5.97
2018-09-12T20:35:13.935Z,6.20
2018-09-12T20:35:47.750Z,6.05
2018-09-12T20:36:20.783Z,5.60
2018-09-12T20:36:53.799Z,5.50
2018-09-12T20:37:26.851Z,6.18
2018-09-12T20:37:59.911Z,5.82
2018-09-12T20:38:32.948Z,6.20
2018-09-12T20:39:05.977Z,6.12
2018-09-12T20:39:39.030Z,6.05
2018-09-12T20:40:12.060Z,6.07
2018-09-12T20:40:45.114Z,6.32
2018-09-12T20:41:18.166Z,5.97
2018-09-12T20:41:51.965Z,5.87
2018-09-12T20:42:24.996Z,5.93
2018-09-12T20:42:58.815Z,6.62
2018-09-12T20:43:32.599Z,6.65
2018-09-12T20:44:06.444Z,5.97
2018-09-12T20:44:39.472Z,5.95
2018-09-12T20:45:12.521Z,6.12
2018-09-12T20:45:45.580Z,5.65
2018-09-12T20:46:18.623Z,6.35
2018-09-12T20:46:51.652Z,6.40
2018-09-12T20:47:24.709Z,5.68
2018-09-12T20:47:57.772Z,6.30
2018-09-12T20:48:30.804Z,6.80
2018-09-12T20:49:04.619Z,6.32
2018-09-12T20:49:37.678Z,6.47
2018-09-12T20:50:10.746Z,6.60
2018-09-12T20:50:44.548Z,6.12
2018-09-12T20:51:17.579Z,6.07
2018-09-12T20:51:50.624Z,6.25
2018-09-12T21:31:42.868Z,6.85
2018-09-12T21:32:15.902Z,8.05
2018-09-12T21:45:54.824Z,7.75
2018-09-12T21:46:27.871Z,7.47
2018-09-12T21:47:00.935Z,7.43
2018-09-12T21:47:33.946Z,7.57
2018-09-12T21:48:06.988Z,7.75
2018-09-12T21:48:40.250Z,7.35
2018-09-12T21:49:13.336Z,7.80
2018-09-12T21:49:46.356Z,7.10
2018-09-12T21:50:19.412Z,7.63
2018-09-12T21:59:01.823Z,7.87
2018-09-12T21:59:36.308Z,7.53
2018-09-12T22:00:10.108Z,8.20
2018-09-12T22:00:43.197Z,7.93
2018-09-12T22:01:16.240Z,6.95
2018-09-12T22:01:50.039Z,7.00
2018-09-12T22:02:23.868Z,7.28
2018-09-12T22:02:56.910Z,7.22
2018-09-12T22:03:30.705Z,7.50
2018-09-12T22:04:03.744Z,7.00
2018-09-12T22:04:36.776Z,7.78
2018-09-12T22:05:09.816Z,7.47
2018-09-12T22:05:43.631Z,8.35
2018-09-12T22:06:16.709Z,6.95
2018-09-12T22:06:49.741Z,7.07
2018-09-12T22:07:22.798Z,7.60
2018-09-12T22:07:55.851Z,7.32
2018-09-12T22:08:29.611Z,7.47
2018-09-12T22:09:03.408Z,7.30
2018-09-12T22:09:37.229Z,7.20
2018-09-12T22:10:10.277Z,7.10
2018-09-12T22:10:44.079Z,7.65
2018-09-12T22:11:17.120Z,7.72
2018-09-12T22:11:50.933Z,7.18
2018-09-12T22:12:24.733Z,7.70
2018-09-12T22:12:57.782Z,7.37
2018-09-12T22:13:30.825Z,7.55
2018-09-12T22:14:03.884Z,7.75
2018-09-12T22:14:37.086Z,7.10
2018-09-12T22:15:10.101Z,7.75
2018-09-12T22:15:43.130Z,6.82
2018-09-12T22:16:16.231Z,7.45
2018-09-12T22:16:50.045Z,7.07
2018-09-12T22:17:23.098Z,8.13
2018-09-12T22:17:56.108Z,7.80
2018-09-12T22:18:29.136Z,7.95
2018-09-12T22:19:02.290Z,8.25
2018-09-12T22:19:36.095Z,8.73
2018-09-12T22:20:09.120Z,8.05
2018-09-12T22:20:42.155Z,7.97
2018-09-12T22:21:15.202Z,8.30
2018-09-12T22:21:49.219Z,7.85
2018-09-12T22:22:22.255Z,8.30
2018-09-12T22:22:55.288Z,7.07
2018-09-12T22:23:29.107Z,7.78
2018-09-12T22:24:02.907Z,8.35
2018-09-12T22:24:35.941Z,8.55
2018-09-12T22:25:09.006Z,7.93
2018-09-12T22:25:42.800Z,8.00
2018-09-12T22:26:15.843Z,8.55
2018-09-12T22:26:48.868Z,8.68
2018-09-12T22:27:22.665Z,9.07
2018-09-12T22:27:55.700Z,8.32
2018-09-12T22:28:28.724Z,8.75
2018-09-12T22:29:01.749Z,8.63
2018-09-12T22:29:34.782Z,9.10
2018-09-12T22:30:07.831Z,8.70
2018-09-12T22:55:11.409Z,8.93
2018-09-12T22:55:44.471Z,9.27
2018-09-12T22:56:18.270Z,9.35
2018-09-12T22:56:51.315Z,9.40
2018-09-12T22:57:24.359Z,9.15
2018-09-12T22:57:57.402Z,8.38
2018-09-12T22:58:30.451Z,8.32
2018-09-12T22:59:04.292Z,8.85
2018-09-12T22:59:37.324Z,8.48
2018-09-12T23:00:11.135Z,9.10
2018-09-12T23:00:44.945Z,9.45
2018-09-12T23:02:55.571Z,9.80
2018-09-12T23:04:01.107Z,9.40
2018-09-12T23:04:34.916Z,9.65
2018-09-12T23:06:13.745Z,9.90
2018-09-12T23:07:19.328Z,10.10
2018-09-12T23:16:34.625Z,10.10
2018-09-12T23:17:07.672Z,10.50
2018-09-12T23:18:45.783Z,9.90
2018-09-12T23:20:23.840Z,9.70
2018-09-12T23:20:57.645Z,10.00
2018-09-12T23:21:31.475Z,8.95
2018-09-12T23:22:04.524Z,9.65
2018-09-12T23:22:37.581Z,9.83
2018-09-12T23:23:11.391Z,10.05
2018-09-12T23:23:44.432Z,10.20
2018-09-12T23:24:17.469Z,10.10
2018-09-12T23:24:50.509Z,11.03
2018-09-12T23:25:23.554Z,11.10
2018-09-12T23:25:56.599Z,11.32
2018-09-12T23:26:29.660Z,10.73
2018-09-12T23:27:37.152Z,10.40
2018-09-12T23:28:42.694Z,10.70
2018-09-12T23:29:15.737Z,9.97
2018-09-12T23:29:49.560Z,10.32
2018-09-12T23:30:22.617Z,9.45
2018-09-12T23:30:55.910Z,9.60
2018-09-12T23:31:28.972Z,10.47
2018-09-12T23:32:02.013Z,9.98
2018-09-12T23:32:35.080Z,9.95
2018-09-12T23:33:08.114Z,9.88
2018-09-12T23:33:41.143Z,9.93
2018-09-12T23:34:14.948Z,11.40
2018-09-12T23:34:47.998Z,10.93
2018-09-12T23:35:21.811Z,10.50
2018-09-12T23:35:55.607Z,10.48
2018-09-12T23:36:28.648Z,10.35
2018-09-12T23:50:45.085Z,9.63
2018-09-12T23:51:18.127Z,10.30
2018-09-12T23:51:51.942Z,9.68
2018-09-12T23:52:24.986Z,10.73
2018-09-12T23:52:58.799Z,9.68
2018-09-12T23:53:31.867Z,10.13
2018-09-12T23:54:04.931Z,10.70
2018-09-12T23:54:37.959Z,10.60
